Time;durP1;ratioP1;P1;durP2;ratioP2;P2;SDS_P1;SDS_P2;PMS_P1;PMS_P2;Temp;Humidity;BMP_temperature;BMP_pressure;BME280_temperature;BME280_humidity;BME280_pressure;Samples;Min_cycle;Max_cycle;Signal;HPM_P1;HPM_P2
2024/04/03 00:00:31;;;;;;;3.60;1.50;;;9.90;99.90;;;;;;4988735;28;20042;-78
2024/04/03 00:02:57;;;;;;;4.95;1.73;;;9.90;99.90;;;;;;4986179;28;20037;-78
2024/04/03 00:05:23;;;;;;;6.32;2.00;;;9.90;99.90;;;;;;4972111;28;20026;-78
2024/04/03 00:07:51;;;;;;;3.13;1.50;;;9.90;99.90;;;;;;4956777;28;20492;-78
2024/04/03 00:10:17;;;;;;;6.75;1.92;;;9.90;99.90;;;;;;4974625;28;20034;-78
2024/04/03 00:12:42;;;;;;;2.08;1.00;;;9.90;99.90;;;;;;4971967;28;20484;-78
2024/04/03 00:15:08;;;;;;;5.85;1.17;;;9.90;99.90;;;;;;4972259;28;20069;-77
2024/04/03 00:17:33;;;;;;;2.90;1.60;;;9.90;99.90;;;;;;4972055;28;20042;-78
2024/04/03 00:19:59;;;;;;;3.72;1.48;;;9.90;99.90;;;;;;4973127;28;20859;-78
2024/04/03 00:22:24;;;;;;;5.70;1.20;;;9.90;99.90;;;;;;4972618;28;20034;-77
2024/04/03 00:24:50;;;;;;;3.25;1.50;;;9.90;99.90;;;;;;4974640;28;20418;-78
2024/04/03 00:27:16;;;;;;;6.95;2.75;;;9.90;99.90;;;;;;4974497;28;20026;-78
2024/04/03 00:29:48;;;;;;;5.10;1.48;;;9.90;99.90;;;;;;4992370;28;20512;-78
2024/04/03 00:32:13;;;;;;;4.38;1.27;;;9.90;99.90;;;;;;4966673;28;20508;-77
2024/04/03 00:34:39;;;;;;;2.85;1.25;;;9.90;99.90;;;;;;4975141;28;20041;-78
2024/04/03 00:37:05;;;;;;;3.40;1.27;;;9.90;99.90;;;;;;4971326;28;20057;-78
2024/04/03 00:39:34;;;;;;;4.53;1.17;;;9.90;99.90;;;;;;4961707;28;20130;-78
2024/04/03 00:42:00;;;;;;;3.47;1.52;;;9.90;99.90;;;;;;4974290;28;20042;-77
2024/04/03 00:44:25;;;;;;;3.90;0.93;;;9.90;99.90;;;;;;4973688;28;20037;-78
2024/04/03 00:46:51;;;;;;;4.60;1.65;;;9.90;99.90;;;;;;4988432;28;20514;-78
2024/04/03 00:49:20;;;;;;;3.45;1.38;;;9.90;99.90;;;;;;4960364;28;20435;-77
2024/04/03 00:51:49;;;;;;;3.80;1.00;;;9.90;99.90;;;;;;4970998;28;20389;-77
2024/04/03 00:54:16;;;;;;;2.25;0.63;;;9.90;99.90;;;;;;4989256;28;20096;-77
2024/04/03 00:56:41;;;;;;;2.50;1.25;;;9.90;99.90;;;;;;4992337;28;20678;-77
2024/04/03 00:59:07;;;;;;;6.30;1.40;;;9.90;99.90;;;;;;4975910;28;20137;-78
2024/04/03 01:01:32;;;;;;;3.60;1.13;;;10.00;99.90;;;;;;4989120;28;20396;-77
2024/04/03 01:03:58;;;;;;;3.53;1.33;;;9.90;99.90;;;;;;4957321;28;20084;-77
2024/04/03 01:06:23;;;;;;;2.60;1.02;;;10.00;99.90;;;;;;4983311;28;20038;-78
2024/04/03 01:08:49;;;;;;;1.90;1.40;;;9.90;99.90;;;;;;4975667;28;20029;-77
2024/04/03 01:11:15;;;;;;;2.90;1.20;;;9.90;99.90;;;;;;4991439;28;20324;-77
2024/04/03 01:13:41;;;;;;;2.85;1.02;;;10.00;99.90;;;;;;4971576;28;20041;-77
2024/04/03 01:16:07;;;;;;;4.80;1.23;;;10.00;99.90;;;;;;4972578;28;20058;-78
2024/04/03 01:18:33;;;;;;;2.88;0.90;;;10.00;99.90;;;;;;4970649;28;20026;-77
2024/04/03 01:20:58;;;;;;;4.70;1.38;;;9.90;99.90;;;;;;4992042;28;20041;-77
2024/04/03 01:23:24;;;;;;;1.70;1.10;;;9.90;99.90;;;;;;4973381;28;20051;-77
2024/04/03 01:25:50;;;;;;;4.78;1.00;;;10.00;99.90;;;;;;4972386;28;20031;-77
2024/04/03 01:28:21;;;;;;;7.72;1.15;;;9.90;99.90;;;;;;4973716;28;20035;-77
2024/04/03 01:30:47;;;;;;;3.58;1.30;;;9.90;99.90;;;;;;4968439;28;20058;-77
2024/04/03 01:33:12;;;;;;;5.72;1.83;;;9.90;99.90;;;;;;4970008;28;20416;-77
2024/04/03 01:35:38;;;;;;;3.78;1.15;;;9.90;99.90;;;;;;4974614;28;20034;-77
2024/04/03 01:38:04;;;;;;;4.13;0.80;;;9.90;99.90;;;;;;4969577;28;20038;-77
2024/04/03 01:40:29;;;;;;;9.25;2.03;;;9.90;99.90;;;;;;4973583;28;20496;-77
2024/04/03 01:42:55;;;;;;;4.45;1.77;;;9.90;99.90;;;;;;4986767;28;20030;-78
2024/04/03 01:45:20;;;;;;;3.65;1.80;;;9.90;99.90;;;;;;4968936;28;20030;-77
2024/04/03 01:47:46;;;;;;;3.55;1.02;;;9.90;99.90;;;;;;4972356;28;20034;-77
2024/04/03 01:50:12;;;;;;;2.85;1.58;;;9.90;99.90;;;;;;4971940;28;20048;-76
2024/04/03 01:52:38;;;;;;;1.33;1.00;;;9.90;99.90;;;;;;4990094;28;20045;-77
2024/04/03 01:55:04;;;;;;;4.10;1.17;;;9.90;99.90;;;;;;4969665;28;20439;-76
2024/04/03 01:57:29;;;;;;;5.18;1.40;;;9.80;99.90;;;;;;4972080;28;20109;-76
2024/04/03 01:59:55;;;;;;;3.05;1.30;;;9.90;99.90;;;;;;4975575;28;20031;-77
2024/04/03 02:02:20;;;;;;;4.57;1.25;;;9.70;99.90;;;;;;4987257;28;20042;-77
2024/04/03 02:04:46;;;;;;;3.97;1.90;;;9.90;99.90;;;;;;4957517;28;20046;-77
2024/04/03 02:07:11;;;;;;;5.32;1.20;;;9.90;99.90;;;;;;4987421;28;20034;-77
2024/04/03 02:09:37;;;;;;;9.10;1.38;;;9.90;99.90;;;;;;4989464;28;20033;-77
2024/04/03 02:12:03;;;;;;;5.68;1.35;;;9.80;99.90;;;;;;4953890;28;20035;-76
2024/04/03 02:14:29;;;;;;;4.10;1.33;;;9.80;99.90;;;;;;4958496;28;20094;-77
2024/04/03 02:16:55;;;;;;;4.25;1.38;;;9.80;99.90;;;;;;4986786;28;20035;-77
2024/04/03 02:19:20;;;;;;;6.60;1.35;;;9.80;99.90;;;;;;4972340;28;20053;-77
2024/04/03 02:21:46;;;;;;;5.93;1.90;;;9.90;99.90;;;;;;4968579;28;20056;-77
2024/04/03 02:24:11;;;;;;;4.15;1.40;;;9.80;99.90;;;;;;4969543;28;20084;-76
2024/04/03 02:26:37;;;;;;;6.68;1.17;;;9.90;99.90;;;;;;4983657;28;20034;-77
2024/04/03 02:29:03;;;;;;;4.90;1.30;;;9.90;99.90;;;;;;4992033;28;20036;-77
2024/04/03 02:31:28;;;;;;;3.75;1.27;;;9.80;99.90;;;;;;4968397;28;20030;-78
2024/04/03 02:33:54;;;;;;;3.33;1.17;;;9.80;99.90;;;;;;4986756;28;20038;-77
2024/04/03 02:36:20;;;;;;;3.50;1.00;;;9.80;99.90;;;;;;4985213;28;20109;-77
2024/04/03 02:38:46;;;;;;;2.33;0.90;;;9.90;99.90;;;;;;4988128;28;20057;-77
2024/04/03 02:41:12;;;;;;;7.15;1.02;;;9.90;99.90;;;;;;4964935;28;20541;-77
2024/04/03 02:43:37;;;;;;;5.47;1.35;;;9.80;99.90;;;;;;4959490;28;20484;-77
2024/04/03 02:46:03;;;;;;;6.10;1.67;;;9.80;99.90;;;;;;4986492;28;20030;-77
2024/04/03 02:48:28;;;;;;;2.92;1.08;;;9.80;99.90;;;;;;4989299;28;20022;-77
2024/04/03 02:51:01;;;;;;;7.88;1.70;;;9.80;99.90;;;;;;4975318;28;20282;-77
2024/04/03 02:53:26;;;;;;;3.55;1.50;;;9.80;99.90;;;;;;4965459;28;20504;-77
2024/04/03 02:55:52;;;;;;;7.35;1.45;;;9.80;99.90;;;;;;4986510;28;20026;-77
2024/04/03 02:58:17;;;;;;;6.38;2.13;;;9.70;99.90;;;;;;4988804;28;20023;-77
2024/04/03 03:00:43;;;;;;;4.53;1.60;;;9.70;99.90;;;;;;4994093;28;20504;-77
2024/04/03 03:03:09;;;;;;;4.03;1.05;;;9.70;99.90;;;;;;4986856;28;20334;-77
2024/04/03 03:05:35;;;;;;;4.88;1.10;;;9.70;99.90;;;;;;4959004;28;20069;-77
2024/04/03 03:08:03;;;;;;;2.42;1.27;;;9.60;99.90;;;;;;4971513;28;20056;-77
2024/04/03 03:10:29;;;;;;;4.43;1.50;;;9.60;99.90;;;;;;4986270;28;20070;-77
2024/04/03 03:12:59;;;;;;;7.03;2.17;;;9.60;99.90;;;;;;4953087;28;20034;-77
2024/04/03 03:15:25;;;;;;;4.35;1.77;;;9.60;99.90;;;;;;4983554;28;20064;-77
2024/04/03 03:17:51;;;;;;;4.18;1.45;;;9.60;99.90;;;;;;4987122;28;20023;-78
2024/04/03 03:20:16;;;;;;;3.60;1.30;;;9.60;99.90;;;;;;4972926;28;20034;-77
2024/04/03 03:22:42;;;;;;;5.85;1.95;;;9.60;99.90;;;;;;4975128;28;20122;-78
2024/04/03 03:25:07;;;;;;;2.40;1.20;;;9.70;99.90;;;;;;4971689;28;20065;-77
2024/04/03 03:27:33;;;;;;;4.93;1.50;;;9.70;99.90;;;;;;4971756;28;20041;-76
2024/04/03 03:29:58;;;;;;;2.72;1.38;;;9.60;99.90;;;;;;4958896;28;20160;-78
2024/04/03 03:32:24;;;;;;;3.38;1.40;;;9.60;99.90;;;;;;4974508;28;20489;-78
2024/04/03 03:34:51;;;;;;;8.45;1.90;;;9.70;99.90;;;;;;4985083;28;20038;-77
2024/04/03 03:37:17;;;;;;;5.15;1.80;;;9.60;99.90;;;;;;4988934;28;20033;-77
2024/04/03 03:39:42;;;;;;;6.72;2.15;;;9.60;99.90;;;;;;4967580;28;20037;-77
2024/04/03 03:42:09;;;;;;;6.28;2.05;;;9.60;99.90;;;;;;4969717;28;20509;-77
2024/04/03 03:44:34;;;;;;;4.78;1.92;;;9.60;99.90;;;;;;4972146;28;20396;-78
2024/04/03 03:47:00;;;;;;;9.18;2.05;;;9.60;99.90;;;;;;4972602;28;20037;-79
2024/04/03 03:55:00;;;;;;;4.30;2.05;;;9.60;99.90;;;;;;4970692;28;20099;-79
2024/04/03 03:57:27;;;;;;;7.15;2.50;;;9.60;99.90;;;;;;4959265;28;20034;-79
2024/04/03 03:59:53;;;;;;;4.10;1.98;;;9.50;99.90;;;;;;4976465;28;20106;-78
2024/04/03 04:02:20;;;;;;;6.65;2.45;;;9.60;99.90;;;;;;4982456;28;20136;-78
2024/04/03 04:04:49;;;;;;;8.20;2.10;;;9.60;99.90;;;;;;4991669;28;20096;-78
2024/04/03 04:07:14;;;;;;;7.97;2.20;;;9.60;99.90;;;;;;4976820;28;20060;-81
2024/04/03 04:09:40;;;;;;;5.15;2.38;;;9.60;99.90;;;;;;4980490;28;20121;-80
2024/04/03 04:12:07;;;;;;;4.03;2.17;;;9.60;99.90;;;;;;4984645;28;20055;-79
2024/04/03 04:14:32;;;;;;;5.47;1.98;;;9.60;99.90;;;;;;4971798;28;20038;-79
2024/04/03 04:16:58;;;;;;;5.43;1.83;;;9.60;99.90;;;;;;4977222;28;20033;-79
2024/04/03 04:19:23;;;;;;;5.63;2.03;;;9.60;99.90;;;;;;4989255;28;20516;-79
2024/04/03 04:21:49;;;;;;;2.78;1.67;;;9.50;99.90;;;;;;4974062;28;20037;-78
2024/04/03 04:24:18;;;;;;;8.30;2.67;;;9.50;99.90;;;;;;4962846;28;20030;-78
2024/04/03 04:26:45;;;;;;;6.20;2.08;;;9.50;99.90;;;;;;5009778;28;20040;-78
2024/04/03 04:29:11;;;;;;;5.57;2.35;;;9.50;99.90;;;;;;4975165;28;20505;-78
2024/04/03 04:31:37;;;;;;;2.90;1.80;;;9.40;99.90;;;;;;5005626;28;20041;-77
2024/04/03 04:34:02;;;;;;;3.50;1.63;;;9.50;99.90;;;;;;5007277;28;20504;-78
2024/04/03 04:36:28;;;;;;;4.57;2.30;;;9.50;99.90;;;;;;5010202;28;20037;-80
2024/04/03 04:38:53;;;;;;;3.97;2.05;;;9.50;99.90;;;;;;5008123;28;20044;-80
2024/04/03 04:41:19;;;;;;;7.47;1.88;;;9.50;99.90;;;;;;4974636;28;20061;-79
2024/04/03 04:43:45;;;;;;;4.72;2.08;;;9.50;99.90;;;;;;4975757;28;20038;-79
2024/04/03 04:46:11;;;;;;;5.55;2.03;;;9.50;99.90;;;;;;5007884;28;20491;-80
2024/04/03 04:48:37;;;;;;;4.13;2.10;;;9.50;99.90;;;;;;4994618;28;20044;-80
2024/04/03 04:51:03;;;;;;;5.63;1.90;;;9.60;99.90;;;;;;5007066;28;20038;-79
2024/04/03 04:53:30;;;;;;;7.00;2.60;;;9.50;99.90;;;;;;5004533;28;20041;-79
2024/04/03 04:56:03;;;;;;;6.38;2.53;;;9.50;99.90;;;;;;4990355;28;20034;-79
2024/04/03 04:58:29;;;;;;;5.28;2.60;;;9.50;99.90;;;;;;4984806;28;20027;-79
2024/04/03 05:01:02;;;;;;;6.10;2.10;;;9.50;99.90;;;;;;4988520;28;20064;-79
2024/04/03 05:03:28;;;;;;;4.93;1.95;;;9.50;99.90;;;;;;4995881;28;20490;-79
2024/04/03 05:05:54;;;;;;;6.03;1.98;;;9.40;99.90;;;;;;5015406;28;20109;-79
2024/04/03 05:08:19;;;;;;;6.20;2.00;;;9.50;99.90;;;;;;4976889;28;20042;-79
2024/04/03 05:10:58;;;;;;;8.90;2.17;;;9.40;99.90;;;;;;4991194;28;20034;-79
2024/04/03 05:13:26;;;;;;;7.45;1.85;;;9.40;99.90;;;;;;4964825;28;20117;-79
2024/04/03 05:15:51;;;;;;;4.38;1.55;;;9.40;99.90;;;;;;4993566;28;20027;-80
2024/04/03 05:18:17;;;;;;;6.55;2.13;;;9.40;99.90;;;;;;4957080;28;20030;-79
2024/04/03 05:20:42;;;;;;;2.72;1.88;;;9.40;99.90;;;;;;4991875;28;20034;-79
2024/04/03 05:23:08;;;;;;;7.13;1.95;;;9.40;99.90;;;;;;4988781;28;20116;-79
2024/04/03 05:25:34;;;;;;;2.88;2.22;;;9.40;99.90;;;;;;4990050;28;20457;-79
2024/04/03 05:27:59;;;;;;;3.35;1.40;;;9.40;99.90;;;;;;4976653;28;20117;-79
2024/04/03 05:30:25;;;;;;;6.10;2.28;;;9.50;99.90;;;;;;4962637;28;20492;-80
2024/04/03 05:32:53;;;;;;;4.93;1.92;;;9.30;99.90;;;;;;4976767;28;20061;-79
2024/04/03 05:35:19;;;;;;;10.00;2.47;;;9.40;99.90;;;;;;4954213;28;20034;-79
2024/04/03 05:37:45;;;;;;;4.20;1.63;;;9.30;99.90;;;;;;4995206;28;20124;-79
2024/04/03 05:40:11;;;;;;;5.78;3.30;;;9.40;99.90;;;;;;4974733;28;20061;-79
2024/04/03 05:42:36;;;;;;;4.90;2.45;;;9.40;99.90;;;;;;4967875;28;20034;-79
2024/04/03 05:45:02;;;;;;;5.18;3.05;;;9.40;99.90;;;;;;4989670;28;20122;-80
2024/04/03 05:47:28;;;;;;;9.50;3.05;;;9.40;99.90;;;;;;4970652;28;20510;-79
2024/04/03 05:49:54;;;;;;;5.03;1.92;;;9.40;99.90;;;;;;4977240;28;20042;-80
2024/04/03 05:52:20;;;;;;;10.95;2.83;;;9.40;99.90;;;;;;4958518;28;20089;-79
2024/04/03 05:54:49;;;;;;;5.30;1.85;;;9.40;99.90;;;;;;4972507;28;20720;-80
2024/04/03 05:57:16;;;;;;;3.30;2.30;;;9.50;99.90;;;;;;4961488;28;20519;-80
2024/04/03 05:59:42;;;;;;;6.03;2.10;;;9.50;99.90;;;;;;4973323;28;20117;-80
2024/04/03 06:02:07;;;;;;;3.22;1.35;;;9.50;99.90;;;;;;4971579;28;20185;-79
2024/04/03 06:04:33;;;;;;;6.18;2.40;;;9.50;99.90;;;;;;4957113;28;20026;-79
2024/04/03 06:06:59;;;;;;;7.82;2.67;;;9.50;99.90;;;;;;4996782;28;20033;-79
2024/04/03 06:09:25;;;;;;;5.65;1.75;;;9.60;99.90;;;;;;4986350;28;20112;-79
2024/04/03 06:11:50;;;;;;;5.63;1.95;;;9.50;99.90;;;;;;4987165;28;20058;-79
2024/04/03 06:14:16;;;;;;;7.40;2.17;;;9.50;99.90;;;;;;4969921;28;20518;-79
2024/04/03 06:16:42;;;;;;;4.70;2.05;;;9.50;99.90;;;;;;4959515;28;20578;-79
2024/04/03 06:19:12;;;;;;;4.47;2.20;;;9.60;99.90;;;;;;4971104;28;20146;-78
2024/04/03 06:21:43;;;;;;;5.10;1.88;;;9.60;99.90;;;;;;4973421;28;20058;-78
2024/04/03 06:24:09;;;;;;;7.50;2.33;;;9.60;99.90;;;;;;4980980;28;20042;-79
2024/04/03 06:26:35;;;;;;;6.43;2.10;;;9.70;99.90;;;;;;4984835;28;20041;-79
2024/04/03 06:29:00;;;;;;;5.47;1.70;;;9.70;99.90;;;;;;4987840;28;20051;-79
2024/04/03 06:31:27;;;;;;;8.90;3.22;;;9.70;99.90;;;;;;4972252;28;20092;-79
2024/04/03 06:33:55;;;;;;;5.22;1.90;;;9.80;99.90;;;;;;4963655;28;20120;-78
2024/04/03 06:36:21;;;;;;;7.95;1.83;;;9.80;99.90;;;;;;4971726;28;20030;-79
2024/04/03 06:38:46;;;;;;;8.10;1.80;;;9.90;99.90;;;;;;4974441;28;20084;-78
2024/04/03 06:41:12;;;;;;;5.55;1.33;;;9.90;99.90;;;;;;4972256;28;20198;-79
2024/04/03 06:43:37;;;;;;;5.93;1.90;;;10.00;99.90;;;;;;4991958;28;20064;-79
2024/04/03 06:46:03;;;;;;;4.82;1.15;;;10.00;99.90;;;;;;4974727;28;20033;-79
2024/04/03 06:48:29;;;;;;;3.95;1.80;;;10.00;99.90;;;;;;4989377;28;20121;-79
2024/04/03 06:50:54;;;;;;;6.47;1.30;;;10.10;99.90;;;;;;4954704;28;20031;-79
2024/04/03 06:53:20;;;;;;;5.88;1.33;;;10.10;99.90;;;;;;4985904;28;20045;-78
2024/04/03 06:55:59;;;;;;;11.13;1.65;;;10.10;99.90;;;;;;4989574;28;20023;-78
2024/04/03 06:58:25;;;;;;;6.63;1.52;;;10.20;99.90;;;;;;4971265;28;20030;-78
2024/04/03 07:00:51;;;;;;;6.75;1.10;;;10.20;99.90;;;;;;4972133;28;20544;-79
2024/04/03 07:03:17;;;;;;;4.53;1.33;;;10.10;99.90;;;;;;4989930;28;20421;-79
2024/04/03 07:05:44;;;;;;;5.38;1.40;;;10.30;99.90;;;;;;4958546;28;20023;-79
2024/04/03 07:08:11;;;;;;;5.13;1.35;;;10.30;99.90;;;;;;4972737;28;20085;-77
2024/04/03 07:10:36;;;;;;;6.70;1.00;;;10.30;99.90;;;;;;4973677;28;20022;-78
2024/04/03 07:13:03;;;;;;;5.40;1.60;;;10.40;99.90;;;;;;4981096;28;20032;-79
2024/04/03 07:15:32;;;;;;;9.15;2.53;;;10.40;99.90;;;;;;4971964;28;20550;-78
2024/04/03 07:18:01;;;;;;;6.07;1.90;;;10.40;99.90;;;;;;4989530;28;20387;-80
2024/04/03 07:20:30;;;;;;;3.53;1.10;;;10.40;99.90;;;;;;4978606;28;20568;-78
2024/04/03 07:22:56;;;;;;;7.20;1.73;;;10.40;99.90;;;;;;4973203;28;20500;-78
2024/04/03 07:25:22;;;;;;;6.13;2.25;;;10.50;99.90;;;;;;4961202;28;20518;-77
2024/04/03 07:27:49;;;;;;;5.78;1.10;;;10.50;99.90;;;;;;4975112;28;20033;-77
2024/04/03 07:30:15;;;;;;;7.90;1.35;;;10.60;99.90;;;;;;4964707;28;20404;-77
2024/04/03 07:32:41;;;;;;;4.95;1.85;;;10.60;99.90;;;;;;4968251;28;20041;-77
2024/04/03 07:35:07;;;;;;;10.45;1.52;;;10.60;99.90;;;;;;4967507;28;20035;-77
2024/04/03 07:37:38;;;;;;;4.10;1.30;;;10.60;99.90;;;;;;4955858;28;20030;-77
2024/04/03 07:40:08;;;;;;;4.00;1.50;;;10.60;99.90;;;;;;4961258;28;20591;-76
2024/04/03 07:42:41;;;;;;;4.43;1.63;;;10.60;99.90;;;;;;4973720;28;20034;-78
2024/04/03 07:45:07;;;;;;;6.63;1.58;;;10.60;99.90;;;;;;4953079;28;20547;-77
2024/04/03 07:47:33;;;;;;;7.63;1.48;;;10.70;99.90;;;;;;4968939;28;20110;-77
2024/04/03 07:50:05;;;;;;;4.03;1.17;;;10.70;99.90;;;;;;4984153;28;20054;-77
2024/04/03 07:52:37;;;;;;;7.10;1.52;;;10.70;99.90;;;;;;4965944;28;20539;-80
2024/04/03 07:55:04;;;;;;;4.57;1.48;;;10.70;99.90;;;;;;4965172;28;20046;-79
2024/04/03 07:57:30;;;;;;;3.60;2.20;;;10.80;99.90;;;;;;4972276;28;20034;-79
2024/04/03 07:59:55;;;;;;;4.47;1.40;;;10.80;99.90;;;;;;4988742;28;20045;-79
2024/04/03 08:02:21;;;;;;;11.82;2.42;;;10.80;99.90;;;;;;4981758;28;20037;-76
2024/04/03 08:04:46;;;;;;;6.88;1.70;;;10.90;99.90;;;;;;4968996;28;20038;-79
2024/04/03 08:07:12;;;;;;;5.38;1.77;;;10.90;99.90;;;;;;4971646;28;20080;-78
2024/04/03 08:09:37;;;;;;;5.40;1.50;;;10.90;99.90;;;;;;4971127;28;20042;-79
2024/04/03 08:12:03;;;;;;;4.93;1.33;;;11.00;99.90;;;;;;4988621;28;20069;-78
2024/04/03 08:14:29;;;;;;;2.83;0.98;;;11.10;99.90;;;;;;4982417;28;20110;-78
2024/04/03 08:16:57;;;;;;;7.15;2.10;;;11.10;99.90;;;;;;4968074;28;20630;-77
2024/04/03 08:19:23;;;;;;;6.05;1.65;;;11.10;99.90;;;;;;4973436;28;20060;-78
2024/04/03 08:21:48;;;;;;;9.00;1.73;;;11.10;99.90;;;;;;4968670;28;20058;-79
2024/04/03 08:24:14;;;;;;;8.77;1.75;;;11.20;99.90;;;;;;4987729;28;20116;-78
2024/04/03 08:26:40;;;;;;;5.38;1.10;;;11.30;99.90;;;;;;4957576;28;20035;-79
2024/04/03 08:29:06;;;;;;;3.65;1.30;;;11.30;99.90;;;;;;4988819;28;20388;-78
2024/04/03 08:31:31;;;;;;;6.88;1.90;;;11.20;99.90;;;;;;4966344;28;20030;-77
2024/04/03 08:33:58;;;;;;;7.30;2.60;;;11.30;99.90;;;;;;4971663;28;20500;-78
2024/04/03 08:36:26;;;;;;;5.43;1.25;;;11.30;99.90;;;;;;4988814;28;20030;-79
2024/04/03 08:38:52;;;;;;;10.75;1.30;;;11.40;99.90;;;;;;4958757;28;20045;-78
2024/04/03 08:41:18;;;;;;;2.10;0.70;;;11.40;99.90;;;;;;4970247;28;20033;-78
2024/04/03 08:43:43;;;;;;;2.67;1.40;;;11.40;99.90;;;;;;4977755;28;20047;-78
2024/04/03 08:46:09;;;;;;;3.55;1.48;;;11.50;99.90;;;;;;4991958;28;20032;-77
2024/04/03 08:48:43;;;;;;;4.95;1.35;;;11.50;99.90;;;;;;4953162;28;20029;-78
2024/04/03 08:51:09;;;;;;;2.85;1.33;;;11.60;99.90;;;;;;4985165;28;20069;-77
2024/04/03 08:53:35;;;;;;;5.55;1.17;;;11.50;99.90;;;;;;4986700;28;20397;-78
2024/04/03 08:56:00;;;;;;;3.75;1.10;;;11.60;99.90;;;;;;4960400;28;20026;-78
2024/04/03 08:58:26;;;;;;;3.25;1.00;;;11.60;99.90;;;;;;4958836;28;20124;-78
2024/04/03 09:00:52;;;;;;;7.75;2.10;;;11.60;99.90;;;;;;4974527;28;20022;-77
2024/04/03 09:03:19;;;;;;;3.40;1.25;;;11.50;99.90;;;;;;4990347;28;20027;-78
2024/04/03 09:05:46;;;;;;;4.00;1.30;;;11.40;99.90;;;;;;4987681;28;20034;-79
2024/04/03 09:08:12;;;;;;;6.05;1.25;;;11.40;99.90;;;;;;4967012;28;20027;-78
2024/04/03 09:10:43;;;;;;;3.42;1.05;;;11.50;99.90;;;;;;4957328;28;20384;-78
2024/04/03 09:13:09;;;;;;;3.10;1.10;;;11.60;99.90;;;;;;4970827;28;20042;-78
2024/04/03 09:15:35;;;;;;;3.50;1.55;;;11.50;99.90;;;;;;4971431;28;20038;-77
2024/04/03 09:18:04;;;;;;;3.28;1.10;;;11.50;99.90;;;;;;4972088;28;20479;-77
2024/04/03 09:20:30;;;;;;;6.03;1.30;;;11.50;99.90;;;;;;4989313;28;20057;-78
2024/04/03 09:22:56;;;;;;;3.75;1.00;;;11.60;99.90;;;;;;4988525;28;20436;-78
2024/04/03 09:25:31;;;;;;;4.50;1.50;;;11.50;99.90;;;;;;4957160;28;20150;-78
2024/04/03 09:28:09;;;;;;;4.30;1.00;;;11.60;99.90;;;;;;4966541;28;20027;-78
2024/04/03 09:30:47;;;;;;;2.53;1.15;;;11.70;99.90;;;;;;4971113;28;20369;-78
2024/04/03 09:33:13;;;;;;;9.52;1.83;;;11.80;99.90;;;;;;4968948;28;20529;-78
2024/04/03 09:35:39;;;;;;;2.13;0.90;;;12.00;99.90;;;;;;4986756;28;20034;-78
2024/04/03 09:38:05;;;;;;;3.80;1.52;;;12.00;99.90;;;;;;4969198;28;20030;-79
2024/04/03 09:40:33;;;;;;;2.10;0.90;;;11.90;99.90;;;;;;4969979;28;20184;-77
2024/04/03 09:43:07;;;;;;;4.03;0.93;;;12.00;99.90;;;;;;4985254;28;20396;-78
2024/04/03 09:45:33;;;;;;;2.50;0.90;;;12.00;99.90;;;;;;4958575;28;20466;-77
2024/04/03 09:48:01;;;;;;;2.33;0.90;;;12.00;99.90;;;;;;4963643;28;20072;-77
2024/04/03 09:50:36;;;;;;;1.08;0.80;;;12.00;99.90;;;;;;4971689;28;20042;-77
2024/04/03 09:53:15;;;;;;;2.75;1.00;;;12.00;99.90;;;;;;4967516;28;20049;-77
2024/04/03 09:55:41;;;;;;;2.75;0.80;;;12.00;99.90;;;;;;4971851;28;20049;-77
2024/04/03 09:58:11;;;;;;;2.47;1.00;;;12.10;99.90;;;;;;4953202;28;20421;-77
2024/04/03 10:00:39;;;;;;;1.27;0.90;;;12.10;99.90;;;;;;4964578;28;20121;-77
2024/04/03 10:03:05;;;;;;;4.70;1.15;;;12.20;99.90;;;;;;4982236;28;20037;-77
2024/04/03 10:05:40;;;;;;;4.25;1.00;;;12.30;99.90;;;;;;4963110;28;20747;-78
2024/04/03 10:08:10;;;;;;;3.75;1.25;;;12.30;99.90;;;;;;4965568;28;20050;-76
2024/04/03 10:10:42;;;;;;;2.65;0.90;;;12.40;99.90;;;;;;4963699;28;20030;-76
2024/04/03 10:13:13;;;;;;;2.13;0.90;;;12.40;99.90;;;;;;4986148;28;20128;-76
2024/04/03 10:15:40;;;;;;;4.15;0.93;;;12.40;99.90;;;;;;4977049;28;20118;-77
2024/04/03 10:18:06;;;;;;;1.95;0.80;;;12.40;99.90;;;;;;4968717;28;20084;-76
2024/04/03 10:20:38;;;;;;;2.67;0.70;;;12.60;99.90;;;;;;4956215;28;20496;-77
2024/04/03 10:23:08;;;;;;;1.40;0.70;;;12.60;99.90;;;;;;4969849;28;20038;-76
2024/04/03 10:25:35;;;;;;;2.67;0.90;;;12.70;99.90;;;;;;4966145;28;20397;-77
2024/04/03 10:28:01;;;;;;;1.75;0.80;;;12.90;99.90;;;;;;4954000;28;20088;-77
2024/04/03 10:30:26;;;;;;;2.65;0.80;;;12.90;99.90;;;;;;4955178;28;20661;-76
2024/04/03 10:32:55;;;;;;;4.50;0.80;;;13.00;99.90;;;;;;4972798;28;20026;-76
2024/04/03 10:35:21;;;;;;;1.55;0.98;;;12.90;99.90;;;;;;4986554;28;20129;-76
2024/04/03 10:37:46;;;;;;;1.05;0.40;;;13.10;99.90;;;;;;4999764;28;20117;-77
2024/04/03 10:40:13;;;;;;;2.35;0.93;;;13.20;99.90;;;;;;4984739;28;20423;-78
2024/04/03 10:42:39;;;;;;;1.13;0.70;;;13.10;99.90;;;;;;4967913;28;20088;-76
2024/04/03 10:45:05;;;;;;;1.02;0.55;;;13.10;99.90;;;;;;4968389;28;20492;-78
2024/04/03 10:47:30;;;;;;;2.10;0.70;;;13.20;99.90;;;;;;4972717;28;20461;-78
2024/04/03 10:49:56;;;;;;;2.28;0.60;;;13.30;99.90;;;;;;4983949;28;20033;-78
2024/04/03 10:52:21;;;;;;;2.00;0.77;;;13.40;99.90;;;;;;4955550;28;20057;-78
2024/04/03 10:54:47;;;;;;;0.47;0.40;;;13.60;99.90;;;;;;4983854;28;20053;-78
2024/04/03 10:57:13;;;;;;;2.10;0.68;;;13.60;99.90;;;;;;4965853;28;20653;-76
2024/04/03 10:59:38;;;;;;;2.80;0.70;;;13.50;99.90;;;;;;4984687;28;20027;-77
2024/04/03 11:02:10;;;;;;;2.63;0.63;;;13.70;99.90;;;;;;4973083;28;20107;-78
2024/04/03 11:04:35;;;;;;;0.73;0.52;;;13.60;99.90;;;;;;4983749;28;20441;-75
2024/04/03 11:07:01;;;;;;;1.83;0.68;;;13.50;99.90;;;;;;4986040;28;20073;-78
2024/04/03 11:09:26;;;;;;;2.75;0.50;;;13.60;99.90;;;;;;4983521;28;20031;-78
2024/04/03 11:11:52;;;;;;;3.60;0.88;;;13.40;99.90;;;;;;4952125;28;20045;-76
2024/04/03 11:14:25;;;;;;;3.47;1.00;;;13.60;99.90;;;;;;4969625;28;20550;-77
2024/04/03 11:16:51;;;;;;;1.52;0.63;;;13.70;99.90;;;;;;4963460;28;20045;-77
2024/04/03 11:19:17;;;;;;;0.60;0.57;;;13.80;99.90;;;;;;4982507;28;20165;-77
2024/04/03 11:21:42;;;;;;;0.80;0.70;;;13.80;99.90;;;;;;4963189;28;20102;-78
2024/04/03 11:24:09;;;;;;;2.25;0.50;;;13.90;99.90;;;;;;4988459;28;20492;-78
2024/04/03 11:26:34;;;;;;;2.25;0.50;;;13.80;99.90;;;;;;4958405;28;20038;-77
2024/04/03 11:29:00;;;;;;;0.98;0.52;;;13.80;99.90;;;;;;4952102;28;20030;-78
2024/04/03 11:31:26;;;;;;;1.33;0.70;;;14.00;99.90;;;;;;4967694;28;20038;-77
2024/04/03 11:33:51;;;;;;;3.15;0.80;;;14.00;99.90;;;;;;4974084;28;20109;-77
2024/04/03 11:36:19;;;;;;;0.57;0.40;;;14.30;99.90;;;;;;4973438;28;20038;-78
2024/04/03 11:38:45;;;;;;;3.00;0.70;;;14.40;99.90;;;;;;4971022;28;20542;-77
2024/04/03 11:41:11;;;;;;;1.95;0.35;;;14.70;99.90;;;;;;4969097;28;20117;-78
2024/04/03 11:43:37;;;;;;;2.17;0.70;;;14.70;99.90;;;;;;4951458;28;20116;-78
2024/04/03 11:46:02;;;;;;;0.40;0.40;;;14.90;99.90;;;;;;4964066;28;20370;-77
2024/04/03 11:48:28;;;;;;;3.03;0.93;;;14.70;99.90;;;;;;4972608;28;20506;-77
2024/04/03 11:50:53;;;;;;;0.88;0.60;;;15.00;99.90;;;;;;4964859;28;20487;-77
2024/04/03 11:53:19;;;;;;;1.52;0.70;;;15.10;99.90;;;;;;4978437;28;20535;-77
2024/04/03 11:55:44;;;;;;;1.88;0.80;;;15.40;99.90;;;;;;4983837;28;20030;-77
2024/04/03 11:58:10;;;;;;;0.38;0.10;;;15.20;99.90;;;;;;4983624;28;20053;-77
2024/04/03 12:00:36;;;;;;;0.47;0.47;;;15.30;99.90;;;;;;4984410;28;20043;-77
2024/04/03 12:03:01;;;;;;;1.05;0.57;;;15.50;99.90;;;;;;4983742;28;20085;-77
2024/04/03 12:05:27;;;;;;;1.60;0.45;;;15.60;99.90;;;;;;4944231;28;20038;-78
2024/04/03 12:07:53;;;;;;;1.00;0.40;;;15.70;99.90;;;;;;4970342;28;20522;-77
2024/04/03 12:10:19;;;;;;;0.90;0.40;;;15.40;99.90;;;;;;4973375;28;20092;-77
2024/04/03 12:12:45;;;;;;;4.50;0.50;;;15.40;99.90;;;;;;4972674;28;20042;-77
2024/04/03 12:15:10;;;;;;;1.05;0.40;;;15.70;99.90;;;;;;4957756;28;20216;-77
2024/04/03 12:17:36;;;;;;;0.75;0.55;;;15.80;99.90;;;;;;4959650;28;20117;-77
2024/04/03 12:22:29;;;;;;;0.70;0.43;;;15.50;99.90;;;;;;4987545;28;20126;-76
2024/04/03 12:24:55;;;;;;;0.88;0.40;;;15.20;99.90;;;;;;4973836;28;20030;-77
2024/04/03 12:27:21;;;;;;;3.90;0.60;;;15.40;99.90;;;;;;4970319;28;20400;-77
2024/04/03 12:29:46;;;;;;;1.55;0.40;;;15.10;99.90;;;;;;4957434;28;20500;-77
2024/04/03 12:32:12;;;;;;;1.17;0.30;;;14.90;99.90;;;;;;4993743;28;20026;-77
2024/04/03 12:34:37;;;;;;;3.80;0.55;;;15.20;99.90;;;;;;4953800;28;20101;-77
2024/04/03 12:37:03;;;;;;;2.28;0.50;;;15.00;99.90;;;;;;4983628;28;20034;-77
2024/04/03 12:39:29;;;;;;;1.20;0.43;;;15.00;99.90;;;;;;4987890;28;20038;-77
2024/04/03 12:41:55;;;;;;;0.08;0.08;;;15.10;99.90;;;;;;4985085;28;20374;-77
2024/04/03 12:44:21;;;;;;;3.13;0.70;;;14.80;99.90;;;;;;4987372;28;20045;-77
2024/04/03 12:46:47;;;;;;;2.58;0.50;;;15.20;99.90;;;;;;4990117;28;20140;-77
2024/04/03 12:49:13;;;;;;;3.40;0.50;;;15.40;99.90;;;;;;4975249;28;20381;-78
2024/04/03 12:51:39;;;;;;;1.45;0.70;;;15.40;99.90;;;;;;4970732;28;20043;-77
2024/04/03 12:54:04;;;;;;;1.23;0.60;;;15.30;99.90;;;;;;4967312;28;20061;-77
2024/04/03 12:56:30;;;;;;;0.63;0.47;;;15.50;99.90;;;;;;4973872;28;20088;-77